sensor_id;sensor_type;location;lat;lon;timestamp;temperature;humidity
3312;DHT22;1668;49.648;8.570;2023-02-18T00:02:12;12.00;99.90
3312;DHT22;1668;49.648;8.570;2023-02-18T00:04:39;12.00;99.90
3312;DHT22;1668;49.648;8.570;2023-02-18T00:07:06;12.00;99.90
3312;DHT22;1668;49.648;8.570;2023-02-18T00:09:32;12.00;99.90
3312;DHT22;1668;49.648;8.570;2023-02-18T00:12:01;12.00;99.90
3312;DHT22;1668;49.648;8.570;2023-02-18T00:14:27;12.00;99.90
3312;DHT22;1668;49.648;8.570;2023-02-18T00:16:54;12.00;99.90
3312;DHT22;1668;49.648;8.570;2023-02-18T00:19:21;12.00;99.90
3312;DHT22;1668;49.648;8.570;2023-02-18T00:21:48;12.00;99.90
3312;DHT22;1668;49.648;8.570;2023-02-18T00:24:15;12.00;99.90
3312;DHT22;1668;49.648;8.570;2023-02-18T00:26:43;12.00;99.90
3312;DHT22;1668;49.648;8.570;2023-02-18T00:29:11;12.00;99.90
3312;DHT22;1668;49.648;8.570;2023-02-18T00:31:39;12.00;99.90
3312;DHT22;1668;49.648;8.570;2023-02-18T00:34:06;12.00;99.90
3312;DHT22;1668;49.648;8.570;2023-02-18T00:36:34;12.00;99.90
3312;DHT22;1668;49.648;8.570;2023-02-18T00:39:03;12.00;99.90
3312;DHT22;1668;49.648;8.570;2023-02-18T00:41:31;12.00;99.90
3312;DHT22;1668;49.648;8.570;2023-02-18T00:43:58;12.00;99.90
3312;DHT22;1668;49.648;8.570;2023-02-18T00:46:27;12.00;99.90
3312;DHT22;1668;49.648;8.570;2023-02-18T00:48:54;12.00;99.90
3312;DHT22;1668;49.648;8.570;2023-02-18T00:51:22;12.00;99.90
3312;DHT22;1668;49.648;8.570;2023-02-18T00:53:50;12.00;99.90
3312;DHT22;1668;49.648;8.570;2023-02-18T00:56:18;12.00;99.90
3312;DHT22;1668;49.648;8.570;2023-02-18T00:58:45;12.00;99.90
3312;DHT22;1668;49.648;8.570;2023-02-18T01:01:12;12.00;99.90
3312;DHT22;1668;49.648;8.570;2023-02-18T01:03:41;12.00;99.90
3312;DHT22;1668;49.648;8.570;2023-02-18T01:06:09;11.90;99.90
3312;DHT22;1668;49.648;8.570;2023-02-18T01:08:39;11.90;99.90
3312;DHT22;1668;49.648;8.570;2023-02-18T01:11:08;11.90;99.90
3312;DHT22;1668;49.648;8.570;2023-02-18T01:13:35;11.90;99.90
3312;DHT22;1668;49.648;8.570;2023-02-18T01:16:02;11.90;99.90
3312;DHT22;1668;49.648;8.570;2023-02-18T01:18:29;11.80;99.90
3312;DHT22;1668;49.648;8.570;2023-02-18T01:20:58;11.80;99.90
3312;DHT22;1668;49.648;8.570;2023-02-18T01:23:25;11.80;99.90
3312;DHT22;1668;49.648;8.570;2023-02-18T01:25:52;11.80;99.90
3312;DHT22;1668;49.648;8.570;2023-02-18T01:28:20;11.80;99.90
3312;DHT22;1668;49.648;8.570;2023-02-18T01:30:49;11.80;99.90
3312;DHT22;1668;49.648;8.570;2023-02-18T01:33:16;11.70;99.90
3312;DHT22;1668;49.648;8.570;2023-02-18T01:35:43;11.70;99.90
3312;DHT22;1668;49.648;8.570;2023-02-18T01:38:11;11.70;99.90
3312;DHT22;1668;49.648;8.570;2023-02-18T01:40:45;11.70;99.90
3312;DHT22;1668;49.648;8.570;2023-02-18T01:43:13;11.60;99.90
3312;DHT22;1668;49.648;8.570;2023-02-18T01:46:04;11.60;99.90
3312;DHT22;1668;49.648;8.570;2023-02-18T01:48:35;11.60;99.90
3312;DHT22;1668;49.648;8.570;2023-02-18T01:51:08;11.60;99.90
3312;DHT22;1668;49.648;8.570;2023-02-18T01:53:43;11.60;99.90
3312;DHT22;1668;49.648;8.570;2023-02-18T01:56:12;11.60;99.90
3312;DHT22;1668;49.648;8.570;2023-02-18T01:58:40;11.60;99.90
3312;DHT22;1668;49.648;8.570;2023-02-18T02:01:08;11.50;99.90
3312;DHT22;1668;49.648;8.570;2023-02-18T02:03:35;11.50;99.90
3312;DHT22;1668;49.648;8.570;2023-02-18T02:06:08;11.50;99.90
3312;DHT22;1668;49.648;8.570;2023-02-18T02:08:39;11.50;99.90
3312;DHT22;1668;49.648;8.570;2023-02-18T02:11:11;11.50;99.90
3312;DHT22;1668;49.648;8.570;2023-02-18T02:13:59;11.50;99.90
3312;DHT22;1668;49.648;8.570;2023-02-18T02:16:33;11.50;99.90
3312;DHT22;1668;49.648;8.570;2023-02-18T02:19:22;11.50;99.90
3312;DHT22;1668;49.648;8.570;2023-02-18T02:22:13;11.50;99.90
3312;DHT22;1668;49.648;8.570;2023-02-18T02:24:59;11.50;99.90
3312;DHT22;1668;49.648;8.570;2023-02-18T02:33:32;11.50;99.90
3312;DHT22;1668;49.648;8.570;2023-02-18T02:36:08;11.50;99.90
3312;DHT22;1668;49.648;8.570;2023-02-18T02:38:41;11.50;99.90
3312;DHT22;1668;49.648;8.570;2023-02-18T02:41:17;11.50;99.90
3312;DHT22;1668;49.648;8.570;2023-02-18T02:43:55;11.50;99.90
3312;DHT22;1668;49.648;8.570;2023-02-18T02:46:29;11.50;99.90
3312;DHT22;1668;49.648;8.570;2023-02-18T02:49:02;11.50;99.90
3312;DHT22;1668;49.648;8.570;2023-02-18T02:51:39;11.50;99.90
3312;DHT22;1668;49.648;8.570;2023-02-18T02:54:10;11.50;99.90
3312;DHT22;1668;49.648;8.570;2023-02-18T02:56:37;11.50;99.90
3312;DHT22;1668;49.648;8.570;2023-02-18T02:59:08;11.60;99.90
3312;DHT22;1668;49.648;8.570;2023-02-18T03:01:43;11.50;99.90
3312;DHT22;1668;49.648;8.570;2023-02-18T03:04:25;11.50;99.90
3312;DHT22;1668;49.648;8.570;2023-02-18T03:07:18;11.50;99.90
3312;DHT22;1668;49.648;8.570;2023-02-18T03:10:04;11.50;99.90
3312;DHT22;1668;49.648;8.570;2023-02-18T03:12:42;11.50;99.90
3312;DHT22;1668;49.648;8.570;2023-02-18T03:15:20;11.50;99.90
3312;DHT22;1668;49.648;8.570;2023-02-18T03:17:53;11.60;99.90
3312;DHT22;1668;49.648;8.570;2023-02-18T03:20:24;11.60;99.90
3312;DHT22;1668;49.648;8.570;2023-02-18T03:22:55;11.60;99.90
3312;DHT22;1668;49.648;8.570;2023-02-18T03:25:23;11.60;99.90
3312;DHT22;1668;49.648;8.570;2023-02-18T03:27:52;11.60;99.90
3312;DHT22;1668;49.648;8.570;2023-02-18T03:30:23;11.60;99.90
3312;DHT22;1668;49.648;8.570;2023-02-18T03:32:54;11.60;99.90
3312;DHT22;1668;49.648;8.570;2023-02-18T03:35:24;11.50;99.90
3312;DHT22;1668;49.648;8.570;2023-02-18T03:37:56;11.50;99.90
3312;DHT22;1668;49.648;8.570;2023-02-18T03:40:26;11.50;99.90
3312;DHT22;1668;49.648;8.570;2023-02-18T03:42:53;11.50;99.90
3312;DHT22;1668;49.648;8.570;2023-02-18T03:45:20;11.50;99.90
3312;DHT22;1668;49.648;8.570;2023-02-18T03:47:47;11.50;99.90
3312;DHT22;1668;49.648;8.570;2023-02-18T03:50:13;11.50;99.90
3312;DHT22;1668;49.648;8.570;2023-02-18T03:52:40;11.50;99.90
3312;DHT22;1668;49.648;8.570;2023-02-18T03:55:09;11.50;99.90
3312;DHT22;1668;49.648;8.570;2023-02-18T03:57:36;11.50;99.90
3312;DHT22;1668;49.648;8.570;2023-02-18T04:00:04;11.50;99.90
3312;DHT22;1668;49.648;8.570;2023-02-18T04:02:32;11.50;99.90
3312;DHT22;1668;49.648;8.570;2023-02-18T04:04:58;11.50;99.90
3312;DHT22;1668;49.648;8.570;2023-02-18T04:07:25;11.50;99.90
3312;DHT22;1668;49.648;8.570;2023-02-18T04:09:52;11.50;99.90
3312;DHT22;1668;49.648;8.570;2023-02-18T04:12:20;11.60;97.50
3312;DHT22;1668;49.648;8.570;2023-02-18T04:14:47;11.60;90.70
3312;DHT22;1668;49.648;8.570;2023-02-18T04:17:14;11.60;90.90
3312;DHT22;1668;49.648;8.570;2023-02-18T04:19:41;11.50;93.40
3312;DHT22;1668;49.648;8.570;2023-02-18T04:22:07;11.50;83.30
3312;DHT22;1668;49.648;8.570;2023-02-18T04:24:34;11.60;39.70
3312;DHT22;1668;49.648;8.570;2023-02-18T04:27:01;11.50;35.00
3312;DHT22;1668;49.648;8.570;2023-02-18T04:29:29;11.50;12.20
3312;DHT22;1668;49.648;8.570;2023-02-18T04:31:56;11.50;1.00
3312;DHT22;1668;49.648;8.570;2023-02-18T04:34:23;11.60;1.00
3312;DHT22;1668;49.648;8.570;2023-02-18T04:36:49;11.60;1.00
3312;DHT22;1668;49.648;8.570;2023-02-18T04:39:16;11.60;1.00
3312;DHT22;1668;49.648;8.570;2023-02-18T04:41:43;11.50;1.00
3312;DHT22;1668;49.648;8.570;2023-02-18T04:44:10;11.50;1.00
3312;DHT22;1668;49.648;8.570;2023-02-18T04:46:38;11.50;1.00
3312;DHT22;1668;49.648;8.570;2023-02-18T04:49:05;11.50;1.00
3312;DHT22;1668;49.648;8.570;2023-02-18T04:51:32;11.50;1.00
3312;DHT22;1668;49.648;8.570;2023-02-18T04:53:59;11.50;1.00
3312;DHT22;1668;49.648;8.570;2023-02-18T04:56:26;11.50;1.00
3312;DHT22;1668;49.648;8.570;2023-02-18T04:58:52;11.50;1.00
3312;DHT22;1668;49.648;8.570;2023-02-18T05:01:19;11.40;1.00
3312;DHT22;1668;49.648;8.570;2023-02-18T05:03:47;11.40;1.00
3312;DHT22;1668;49.648;8.570;2023-02-18T05:06:14;11.40;1.00
3312;DHT22;1668;49.648;8.570;2023-02-18T05:08:41;11.40;1.00
3312;DHT22;1668;49.648;8.570;2023-02-18T05:11:08;11.50;1.00
3312;DHT22;1668;49.648;8.570;2023-02-18T05:13:35;11.50;1.00
3312;DHT22;1668;49.648;8.570;2023-02-18T05:16:03;11.50;1.00
3312;DHT22;1668;49.648;8.570;2023-02-18T05:18:30;11.50;1.00
3312;DHT22;1668;49.648;8.570;2023-02-18T05:20:58;11.40;1.00
3312;DHT22;1668;49.648;8.570;2023-02-18T05:23:24;11.40;1.00
3312;DHT22;1668;49.648;8.570;2023-02-18T05:25:51;11.40;1.00
3312;DHT22;1668;49.648;8.570;2023-02-18T05:28:19;11.40;1.00
3312;DHT22;1668;49.648;8.570;2023-02-18T05:30:46;11.40;1.00
3312;DHT22;1668;49.648;8.570;2023-02-18T05:33:13;11.40;1.00
3312;DHT22;1668;49.648;8.570;2023-02-18T05:35:40;11.40;99.90
3312;DHT22;1668;49.648;8.570;2023-02-18T05:38:08;11.50;99.90
3312;DHT22;1668;49.648;8.570;2023-02-18T05:40:37;11.40;99.90
3312;DHT22;1668;49.648;8.570;2023-02-18T05:43:04;11.50;99.90
3312;DHT22;1668;49.648;8.570;2023-02-18T05:45:30;11.50;99.90
3312;DHT22;1668;49.648;8.570;2023-02-18T05:47:57;11.40;99.90
3312;DHT22;1668;49.648;8.570;2023-02-18T05:50:24;11.40;99.90
3312;DHT22;1668;49.648;8.570;2023-02-18T05:52:51;11.40;99.90
3312;DHT22;1668;49.648;8.570;2023-02-18T05:55:19;11.40;99.90
3312;DHT22;1668;49.648;8.570;2023-02-18T05:57:46;11.40;99.90
3312;DHT22;1668;49.648;8.570;2023-02-18T06:00:14;11.40;99.90
3312;DHT22;1668;49.648;8.570;2023-02-18T06:02:41;11.40;99.90
3312;DHT22;1668;49.648;8.570;2023-02-18T06:05:08;11.40;99.90
3312;DHT22;1668;49.648;8.570;2023-02-18T06:07:35;11.40;99.90
3312;DHT22;1668;49.648;8.570;2023-02-18T06:10:02;11.40;99.90
3312;DHT22;1668;49.648;8.570;2023-02-18T06:12:31;11.40;99.90
3312;DHT22;1668;49.648;8.570;2023-02-18T06:14:58;11.40;99.90
3312;DHT22;1668;49.648;8.570;2023-02-18T06:17:25;11.40;99.90
3312;DHT22;1668;49.648;8.570;2023-02-18T06:19:52;11.30;99.90
3312;DHT22;1668;49.648;8.570;2023-02-18T06:22:18;11.30;99.90
3312;DHT22;1668;49.648;8.570;2023-02-18T06:24:46;11.30;1.00
3312;DHT22;1668;49.648;8.570;2023-02-18T06:27:13;11.30;1.00
3312;DHT22;1668;49.648;8.570;2023-02-18T06:29:41;11.30;1.00
3312;DHT22;1668;49.648;8.570;2023-02-18T06:32:08;11.30;99.90
3312;DHT22;1668;49.648;8.570;2023-02-18T06:34:35;11.30;1.00
3312;DHT22;1668;49.648;8.570;2023-02-18T06:37:02;11.30;1.00
3312;DHT22;1668;49.648;8.570;2023-02-18T06:39:28;11.30;1.00
3312;DHT22;1668;49.648;8.570;2023-02-18T06:41:55;11.30;99.90
3312;DHT22;1668;49.648;8.570;2023-02-18T06:44:22;11.30;99.90
3312;DHT22;1668;49.648;8.570;2023-02-18T06:46:51;11.30;99.90
3312;DHT22;1668;49.648;8.570;2023-02-18T06:49:17;11.20;99.90
3312;DHT22;1668;49.648;8.570;2023-02-18T06:51:44;11.30;1.00
3312;DHT22;1668;49.648;8.570;2023-02-18T06:54:11;11.30;1.00
3312;DHT22;1668;49.648;8.570;2023-02-18T06:56:38;11.30;1.00
3312;DHT22;1668;49.648;8.570;2023-02-18T06:59:04;11.30;1.00
3312;DHT22;1668;49.648;8.570;2023-02-18T07:01:32;11.30;1.00
3312;DHT22;1668;49.648;8.570;2023-02-18T07:04:00;11.30;99.90
3312;DHT22;1668;49.648;8.570;2023-02-18T07:06:27;11.30;5.90
3312;DHT22;1668;49.648;8.570;2023-02-18T07:08:54;11.30;62.60
3312;DHT22;1668;49.648;8.570;2023-02-18T07:11:21;11.30;99.90
3312;DHT22;1668;49.648;8.570;2023-02-18T07:13:48;11.30;89.40
3312;DHT22;1668;49.648;8.570;2023-02-18T07:16:14;11.30;99.90
3312;DHT22;1668;49.648;8.570;2023-02-18T07:18:41;11.30;99.90
3312;DHT22;1668;49.648;8.570;2023-02-18T07:21:09;11.30;99.90
3312;DHT22;1668;49.648;8.570;2023-02-18T07:23:36;11.30;1.00
3312;DHT22;1668;49.648;8.570;2023-02-18T07:26:05;11.30;99.90
3312;DHT22;1668;49.648;8.570;2023-02-18T07:28:32;11.30;99.90
3312;DHT22;1668;49.648;8.570;2023-02-18T07:30:59;11.30;99.90
3312;DHT22;1668;49.648;8.570;2023-02-18T07:33:25;11.30;1.00
3312;DHT22;1668;49.648;8.570;2023-02-18T07:35:53;11.30;46.40
3312;DHT22;1668;49.648;8.570;2023-02-18T07:38:22;11.30;1.00
3312;DHT22;1668;49.648;8.570;2023-02-18T07:40:49;11.30;1.00
3312;DHT22;1668;49.648;8.570;2023-02-18T07:43:16;11.40;99.90
3312;DHT22;1668;49.648;8.570;2023-02-18T07:45:43;11.40;1.00
3312;DHT22;1668;49.648;8.570;2023-02-18T07:48:10;11.50;99.90
3312;DHT22;1668;49.648;8.570;2023-02-18T07:50:38;11.50;99.90
3312;DHT22;1668;49.648;8.570;2023-02-18T07:53:05;11.50;1.00
3312;DHT22;1668;49.648;8.570;2023-02-18T07:55:34;11.50;99.90
3312;DHT22;1668;49.648;8.570;2023-02-18T07:58:15;11.50;83.00
3312;DHT22;1668;49.648;8.570;2023-02-18T08:00:42;11.50;99.90
3312;DHT22;1668;49.648;8.570;2023-02-18T08:03:08;11.50;1.00
3312;DHT22;1668;49.648;8.570;2023-02-18T08:05:35;11.60;99.90
3312;DHT22;1668;49.648;8.570;2023-02-18T08:08:02;11.60;99.90
3312;DHT22;1668;49.648;8.570;2023-02-18T08:10:29;11.60;99.90
3312;DHT22;1668;49.648;8.570;2023-02-18T08:12:57;11.70;28.80
3312;DHT22;1668;49.648;8.570;2023-02-18T08:15:24;11.70;1.00
3312;DHT22;1668;49.648;8.570;2023-02-18T08:17:51;11.80;99.90
3312;DHT22;1668;49.648;8.570;2023-02-18T08:20:18;11.80;1.00
3312;DHT22;1668;49.648;8.570;2023-02-18T08:22:45;11.80;99.90
3312;DHT22;1668;49.648;8.570;2023-02-18T08:25:12;11.80;99.90
3312;DHT22;1668;49.648;8.570;2023-02-18T08:27:39;11.90;1.00
3312;DHT22;1668;49.648;8.570;2023-02-18T08:30:08;12.00;1.00
3312;DHT22;1668;49.648;8.570;2023-02-18T08:32:35;12.00;1.00
3312;DHT22;1668;49.648;8.570;2023-02-18T08:35:05;12.00;1.00
3312;DHT22;1668;49.648;8.570;2023-02-18T08:37:32;12.00;1.00
3312;DHT22;1668;49.648;8.570;2023-02-18T08:40:00;12.00;1.00
3312;DHT22;1668;49.648;8.570;2023-02-18T08:42:27;12.00;64.80
3312;DHT22;1668;49.648;8.570;2023-02-18T08:44:54;12.00;99.90
3312;DHT22;1668;49.648;8.570;2023-02-18T08:47:22;12.00;99.90
3312;DHT22;1668;49.648;8.570;2023-02-18T08:49:50;12.00;99.90
3312;DHT22;1668;49.648;8.570;2023-02-18T08:52:17;12.00;99.90
3312;DHT22;1668;49.648;8.570;2023-02-18T08:54:44;12.10;99.90
3312;DHT22;1668;49.648;8.570;2023-02-18T08:57:11;12.10;1.00
3312;DHT22;1668;49.648;8.570;2023-02-18T08:59:38;12.10;1.00
3312;DHT22;1668;49.648;8.570;2023-02-18T09:02:05;12.10;1.00
3312;DHT22;1668;49.648;8.570;2023-02-18T09:04:33;12.20;1.00
3312;DHT22;1668;49.648;8.570;2023-02-18T09:07:00;12.20;1.00
3312;DHT22;1668;49.648;8.570;2023-02-18T09:09:28;12.20;1.00
3312;DHT22;1668;49.648;8.570;2023-02-18T09:11:55;12.20;1.00
3312;DHT22;1668;49.648;8.570;2023-02-18T09:14:22;12.20;1.00
3312;DHT22;1668;49.648;8.570;2023-02-18T09:16:49;12.20;99.90
3312;DHT22;1668;49.648;8.570;2023-02-18T09:19:16;12.20;1.00
3312;DHT22;1668;49.648;8.570;2023-02-18T09:21:44;12.20;1.00
3312;DHT22;1668;49.648;8.570;2023-02-18T09:24:11;12.20;1.00
3312;DHT22;1668;49.648;8.570;2023-02-18T09:26:37;12.30;99.90
3312;DHT22;1668;49.648;8.570;2023-02-18T09:29:05;12.30;99.90
3312;DHT22;1668;49.648;8.570;2023-02-18T09:31:32;12.30;99.90
3312;DHT22;1668;49.648;8.570;2023-02-18T09:34:01;12.30;99.90
3312;DHT22;1668;49.648;8.570;2023-02-18T09:36:28;12.30;54.00
3312;DHT22;1668;49.648;8.570;2023-02-18T09:38:57;12.40;99.90
3312;DHT22;1668;49.648;8.570;2023-02-18T09:41:29;12.30;99.90
3312;DHT22;1668;49.648;8.570;2023-02-18T09:43:58;12.40;1.00
3312;DHT22;1668;49.648;8.570;2023-02-18T09:46:29;12.40;1.00
3312;DHT22;1668;49.648;8.570;2023-02-18T09:48:56;12.40;1.00
3312;DHT22;1668;49.648;8.570;2023-02-18T09:51:23;12.50;1.00
3312;DHT22;1668;49.648;8.570;2023-02-18T09:53:51;12.50;1.00
3312;DHT22;1668;49.648;8.570;2023-02-18T09:56:22;12.50;1.00
3312;DHT22;1668;49.648;8.570;2023-02-18T09:58:52;12.50;1.00
3312;DHT22;1668;49.648;8.570;2023-02-18T10:01:24;12.50;1.00
3312;DHT22;1668;49.648;8.570;2023-02-18T10:03:55;12.50;1.00
3312;DHT22;1668;49.648;8.570;2023-02-18T10:06:26;12.50;1.00
3312;DHT22;1668;49.648;8.570;2023-02-18T10:08:55;12.60;1.00
3312;DHT22;1668;49.648;8.570;2023-02-18T10:11:30;12.60;99.90
3312;DHT22;1668;49.648;8.570;2023-02-18T10:13:59;12.70;99.90
3312;DHT22;1668;49.648;8.570;2023-02-18T10:16:27;12.70;99.90
3312;DHT22;1668;49.648;8.570;2023-02-18T10:19:16;12.80;99.90
3312;DHT22;1668;49.648;8.570;2023-02-18T10:21:47;12.80;99.90
3312;DHT22;1668;49.648;8.570;2023-02-18T10:24:23;12.80;99.90
3312;DHT22;1668;49.648;8.570;2023-02-18T10:26:52;12.80;99.90
3312;DHT22;1668;49.648;8.570;2023-02-18T10:29:20;12.80;1.00
3312;DHT22;1668;49.648;8.570;2023-02-18T10:31:53;12.80;1.00
3312;DHT22;1668;49.648;8.570;2023-02-18T10:34:29;12.80;1.00
3312;DHT22;1668;49.648;8.570;2023-02-18T10:37:00;12.70;1.00
3312;DHT22;1668;49.648;8.570;2023-02-18T10:39:38;12.70;1.00
3312;DHT22;1668;49.648;8.570;2023-02-18T10:42:18;12.70;1.00
3312;DHT22;1668;49.648;8.570;2023-02-18T10:44:58;12.70;51.60
3312;DHT22;1668;49.648;8.570;2023-02-18T10:47:36;12.60;14.00
3312;DHT22;1668;49.648;8.570;2023-02-18T10:50:09;12.60;93.20
3312;DHT22;1668;49.648;8.570;2023-02-18T10:52:42;12.60;1.00
3312;DHT22;1668;49.648;8.570;2023-02-18T10:55:11;12.60;1.00
3312;DHT22;1668;49.648;8.570;2023-02-18T10:57:47;12.60;1.00
3312;DHT22;1668;49.648;8.570;2023-02-18T11:00:17;12.60;1.00
3312;DHT22;1668;49.648;8.570;2023-02-18T11:02:45;12.60;1.00
3312;DHT22;1668;49.648;8.570;2023-02-18T11:05:19;12.60;1.00
3312;DHT22;1668;49.648;8.570;2023-02-18T11:07:50;12.60;1.00
3312;DHT22;1668;49.648;8.570;2023-02-18T11:10:21;12.60;1.00
3312;DHT22;1668;49.648;8.570;2023-02-18T11:12:55;12.60;1.00
3312;DHT22;1668;49.648;8.570;2023-02-18T11:15:24;12.60;1.00
3312;DHT22;1668;49.648;8.570;2023-02-18T11:17:53;12.60;1.00
3312;DHT22;1668;49.648;8.570;2023-02-18T11:20:27;12.60;1.00
3312;DHT22;1668;49.648;8.570;2023-02-18T11:23:17;12.60;1.00
3312;DHT22;1668;49.648;8.570;2023-02-18T11:26:00;12.60;1.00
3312;DHT22;1668;49.648;8.570;2023-02-18T11:28:34;12.60;1.00
3312;DHT22;1668;49.648;8.570;2023-02-18T11:31:05;12.60;1.00
3312;DHT22;1668;49.648;8.570;2023-02-18T11:33:34;12.60;1.00
3312;DHT22;1668;49.648;8.570;2023-02-18T11:36:08;12.60;1.00
3312;DHT22;1668;49.648;8.570;2023-02-18T11:38:42;12.70;1.00
3312;DHT22;1668;49.648;8.570;2023-02-18T11:41:12;12.70;1.00
3312;DHT22;1668;49.648;8.570;2023-02-18T11:43:44;12.70;1.00
3312;DHT22;1668;49.648;8.570;2023-02-18T11:46:14;12.80;99.90
3312;DHT22;1668;49.648;8.570;2023-02-18T11:48:41;12.90;99.90
3312;DHT22;1668;49.648;8.570;2023-02-18T11:51:15;13.00;99.90
3312;DHT22;1668;49.648;8.570;2023-02-18T11:53:57;13.00;99.90
3312;DHT22;1668;49.648;8.570;2023-02-18T11:56:26;13.20;99.90
3312;DHT22;1668;49.648;8.570;2023-02-18T11:58:56;13.30;99.90
3312;DHT22;1668;49.648;8.570;2023-02-18T12:01:44;13.40;99.90
3312;DHT22;1668;49.648;8.570;2023-02-18T12:04:14;13.40;99.90
3312;DHT22;1668;49.648;8.570;2023-02-18T12:06:53;13.40;94.40
3312;DHT22;1668;49.648;8.570;2023-02-18T12:09:27;13.40;55.40
3312;DHT22;1668;49.648;8.570;2023-02-18T12:11:57;13.40;71.20
3312;DHT22;1668;49.648;8.570;2023-02-18T12:14:27;13.30;65.70
3312;DHT22;1668;49.648;8.570;2023-02-18T12:17:11;13.30;86.70
3312;DHT22;1668;49.648;8.570;2023-02-18T12:20:05;13.20;76.60
3312;DHT22;1668;49.648;8.570;2023-02-18T12:22:41;13.20;94.00
3312;DHT22;1668;49.648;8.570;2023-02-18T12:25:32;13.20;96.40
3312;DHT22;1668;49.648;8.570;2023-02-18T12:28:13;13.20;84.10
3312;DHT22;1668;49.648;8.570;2023-02-18T12:31:02;13.10;46.80
3312;DHT22;1668;49.648;8.570;2023-02-18T12:33:37;13.10;62.50
3312;DHT22;1668;49.648;8.570;2023-02-18T12:36:11;13.10;39.20
3312;DHT22;1668;49.648;8.570;2023-02-18T12:41:55;13.00;40.90
3312;DHT22;1668;49.648;8.570;2023-02-18T12:44:36;13.00;77.90
3312;DHT22;1668;49.648;8.570;2023-02-18T12:47:30;13.00;67.00
3312;DHT22;1668;49.648;8.570;2023-02-18T12:50:24;13.00;75.10
3312;DHT22;1668;49.648;8.570;2023-02-18T12:53:15;13.00;99.90
3312;DHT22;1668;49.648;8.570;2023-02-18T12:58:45;13.00;99.90
3312;DHT22;1668;49.648;8.570;2023-02-18T13:01:36;13.00;99.90
3312;DHT22;1668;49.648;8.570;2023-02-18T13:04:35;12.90;99.90
3312;DHT22;1668;49.648;8.570;2023-02-18T13:07:35;13.00;99.90
3312;DHT22;1668;49.648;8.570;2023-02-18T13:10:32;13.00;99.90
3312;DHT22;1668;49.648;8.570;2023-02-18T13:13:10;12.90;99.90
3312;DHT22;1668;49.648;8.570;2023-02-18T13:15:42;12.90;99.90
3312;DHT22;1668;49.648;8.570;2023-02-18T13:18:12;12.90;99.90
3312;DHT22;1668;49.648;8.570;2023-02-18T13:20:45;12.90;99.90
3312;DHT22;1668;49.648;8.570;2023-02-18T13:23:18;12.90;99.90
3312;DHT22;1668;49.648;8.570;2023-02-18T13:25:46;12.90;99.90
3312;DHT22;1668;49.648;8.570;2023-02-18T13:28:22;13.00;99.90
3312;DHT22;1668;49.648;8.570;2023-02-18T13:30:56;12.90;99.90
3312;DHT22;1668;49.648;8.570;2023-02-18T13:33:34;12.90;99.90
3312;DHT22;1668;49.648;8.570;2023-02-18T13:36:11;12.90;99.90
3312;DHT22;1668;49.648;8.570;2023-02-18T13:39:02;12.90;99.90
3312;DHT22;1668;49.648;8.570;2023-02-18T13:41:35;12.90;99.90
3312;DHT22;1668;49.648;8.570;2023-02-18T13:44:08;12.90;99.90
3312;DHT22;1668;49.648;8.570;2023-02-18T13:46:55;12.90;99.90
3312;DHT22;1668;49.648;8.570;2023-02-18T13:49:25;13.00;99.90
3312;DHT22;1668;49.648;8.570;2023-02-18T13:51:57;13.00;99.90
3312;DHT22;1668;49.648;8.570;2023-02-18T13:54:27;13.00;99.90
3312;DHT22;1668;49.648;8.570;2023-02-18T13:57:00;13.00;99.90
3312;DHT22;1668;49.648;8.570;2023-02-18T13:59:32;13.00;99.90
3312;DHT22;1668;49.648;8.570;2023-02-18T14:04:52;12.90;99.90
3312;DHT22;1668;49.648;8.570;2023-02-18T14:07:43;12.90;99.90
3312;DHT22;1668;49.648;8.570;2023-02-18T14:10:30;12.90;99.90
3312;DHT22;1668;49.648;8.570;2023-02-18T14:13:22;12.90;99.90
3312;DHT22;1668;49.648;8.570;2023-02-18T14:15:58;12.90;99.90
3312;DHT22;1668;49.648;8.570;2023-02-18T14:18:31;12.90;99.90
3312;DHT22;1668;49.648;8.570;2023-02-18T14:21:19;12.90;99.90
3312;DHT22;1668;49.648;8.570;2023-02-18T14:24:00;12.90;99.90
3312;DHT22;1668;49.648;8.570;2023-02-18T14:26:29;12.90;99.90
3312;DHT22;1668;49.648;8.570;2023-02-18T14:29:00;12.90;99.90
3312;DHT22;1668;49.648;8.570;2023-02-18T14:31:34;12.90;99.90
3312;DHT22;1668;49.648;8.570;2023-02-18T14:34:28;12.90;99.90
3312;DHT22;1668;49.648;8.570;2023-02-18T14:37:03;12.90;99.90
3312;DHT22;1668;49.648;8.570;2023-02-18T14:39:44;12.80;99.90
3312;DHT22;1668;49.648;8.570;2023-02-18T14:42:23;12.80;99.90
3312;DHT22;1668;49.648;8.570;2023-02-18T14:45:04;12.80;99.90
3312;DHT22;1668;49.648;8.570;2023-02-18T14:47:46;12.80;99.90
3312;DHT22;1668;49.648;8.570;2023-02-18T14:50:17;12.80;99.90
3312;DHT22;1668;49.648;8.570;2023-02-18T14:52:47;12.80;99.90
3312;DHT22;1668;49.648;8.570;2023-02-18T14:55:19;12.80;99.90
3312;DHT22;1668;49.648;8.570;2023-02-18T14:57:50;12.80;99.90
3312;DHT22;1668;49.648;8.570;2023-02-18T15:00:19;12.80;99.90
3312;DHT22;1668;49.648;8.570;2023-02-18T15:02:48;12.70;99.90
3312;DHT22;1668;49.648;8.570;2023-02-18T15:05:17;12.70;99.90
3312;DHT22;1668;49.648;8.570;2023-02-18T15:07:55;12.70;99.90
3312;DHT22;1668;49.648;8.570;2023-02-18T15:10:27;12.70;99.90
3312;DHT22;1668;49.648;8.570;2023-02-18T15:12:57;12.70;99.90
3312;DHT22;1668;49.648;8.570;2023-02-18T15:15:24;12.70;99.90
3312;DHT22;1668;49.648;8.570;2023-02-18T15:17:51;12.60;99.90
3312;DHT22;1668;49.648;8.570;2023-02-18T15:20:18;12.60;1.00
3312;DHT22;1668;49.648;8.570;2023-02-18T15:22:45;12.60;99.90
3312;DHT22;1668;49.648;8.570;2023-02-18T15:25:13;12.60;1.00
3312;DHT22;1668;49.648;8.570;2023-02-18T15:27:42;12.60;1.00
3312;DHT22;1668;49.648;8.570;2023-02-18T15:30:24;12.50;1.00
3312;DHT22;1668;49.648;8.570;2023-02-18T15:32:53;12.50;1.00
3312;DHT22;1668;49.648;8.570;2023-02-18T15:35:22;12.50;99.90
3312;DHT22;1668;49.648;8.570;2023-02-18T15:37:55;12.50;1.00
3312;DHT22;1668;49.648;8.570;2023-02-18T15:40:25;12.40;1.00
3312;DHT22;1668;49.648;8.570;2023-02-18T15:42:56;12.30;99.90
3312;DHT22;1668;49.648;8.570;2023-02-18T15:45:29;12.20;1.00
3312;DHT22;1668;49.648;8.570;2023-02-18T15:47:57;12.20;1.00
3312;DHT22;1668;49.648;8.570;2023-02-18T15:50:26;12.10;1.00
3312;DHT22;1668;49.648;8.570;2023-02-18T15:52:55;12.10;1.00
3312;DHT22;1668;49.648;8.570;2023-02-18T15:55:26;12.10;1.00
3312;DHT22;1668;49.648;8.570;2023-02-18T15:57:59;12.00;99.90
3312;DHT22;1668;49.648;8.570;2023-02-18T16:00:29;12.00;99.90
3312;DHT22;1668;49.648;8.570;2023-02-18T16:03:02;12.00;99.90
3312;DHT22;1668;49.648;8.570;2023-02-18T16:05:29;12.00;99.90
3312;DHT22;1668;49.648;8.570;2023-02-18T16:07:59;12.00;99.90
3312;DHT22;1668;49.648;8.570;2023-02-18T16:10:43;12.00;99.90
3312;DHT22;1668;49.648;8.570;2023-02-18T16:13:15;12.00;99.90
3312;DHT22;1668;49.648;8.570;2023-02-18T16:15:44;12.00;99.90
3312;DHT22;1668;49.648;8.570;2023-02-18T16:18:21;12.00;99.90
3312;DHT22;1668;49.648;8.570;2023-02-18T16:20:54;12.00;64.30
3312;DHT22;1668;49.648;8.570;2023-02-18T16:23:28;12.00;95.60
3312;DHT22;1668;49.648;8.570;2023-02-18T16:25:55;11.90;75.30
3312;DHT22;1668;49.648;8.570;2023-02-18T16:28:25;12.00;99.90
3312;DHT22;1668;49.648;8.570;2023-02-18T16:30:53;11.90;99.90
3312;DHT22;1668;49.648;8.570;2023-02-18T16:33:20;11.90;99.90
3312;DHT22;1668;49.648;8.570;2023-02-18T16:35:47;11.90;99.90
3312;DHT22;1668;49.648;8.570;2023-02-18T16:38:16;11.90;99.90
3312;DHT22;1668;49.648;8.570;2023-02-18T16:40:43;11.90;93.70
3312;DHT22;1668;49.648;8.570;2023-02-18T16:43:13;11.90;99.90
3312;DHT22;1668;49.648;8.570;2023-02-18T16:45:43;11.90;99.90
3312;DHT22;1668;49.648;8.570;2023-02-18T16:48:14;11.90;99.90